Time;durP1;ratioP1;P1;durP2;ratioP2;P2;SDS_P1;SDS_P2;PMS_P1;PMS_P2;Temp;Humidity;BMP_temperature;BMP_pressure;BME280_temperature;BME280_humidity;BME280_pressure;Samples;Min_cycle;Max_cycle;Signal;HPM_P1;HPM_P2
2022/09/20 00:01:09;;;;;;;0.73;0.50;;;14.50;69.70;14.70;96780.00;;;;5092647;28;20243;-81
2022/09/20 00:03:38;;;;;;;0.87;0.40;;;14.50;69.90;14.70;96771.00;;;;5084461;28;20187;-82
2022/09/20 00:06:11;;;;;;;0.30;0.30;;;14.50;70.10;14.80;96765.00;;;;5086639;28;20219;-82
2022/09/20 00:08:39;;;;;;;0.60;0.50;;;14.60;70.40;14.80;96768.00;;;;5087127;28;20607;-82
2022/09/20 00:11:09;;;;;;;0.87;0.50;;;14.60;70.40;14.80;96767.00;;;;5090319;28;20215;-81
2022/09/20 00:13:39;;;;;;;0.70;0.47;;;14.60;70.60;14.80;96779.00;;;;5092855;28;20708;-82
2022/09/20 00:16:08;;;;;;;0.70;0.70;;;14.60;71.00;14.80;96772.00;;;;5087434;28;20235;-82
2022/09/20 00:18:36;;;;;;;0.60;0.50;;;14.60;71.10;14.80;96777.00;;;;5090098;28;20227;-82
2022/09/20 00:21:05;;;;;;;0.43;0.40;;;14.60;71.10;14.80;96779.00;;;;5080585;28;20294;-82
2022/09/20 00:23:35;;;;;;;1.00;0.60;;;14.60;71.10;14.80;96778.00;;;;5092021;28;20249;-82
2022/09/20 00:26:04;;;;;;;0.40;0.40;;;14.70;71.40;14.90;96784.00;;;;5075287;28;20204;-82
2022/09/20 00:28:33;;;;;;;0.53;0.50;;;14.70;71.60;14.80;96776.00;;;;5083619;28;20247;-82
2022/09/20 00:31:01;;;;;;;1.83;0.60;;;14.70;71.70;14.90;96780.00;;;;5091474;28;20219;-82
2022/09/20 00:35:06;;;;;;;0.40;0.40;;;14.70;71.70;14.90;96780.00;;;;5089103;28;20223;-82
2022/09/20 00:36:15;;;;;;;0.40;0.40;;;14.70;71.60;14.90;96783.00;;;;5092336;28;20191;-82
2022/09/20 00:38:43;;;;;;;0.80;0.30;;;14.70;71.60;14.90;96783.00;;;;5088316;28;20237;-82
2022/09/20 00:41:10;;;;;;;1.00;0.30;;;14.70;71.60;14.90;96780.00;;;;5077864;28;20211;-82
2022/09/20 00:43:41;;;;;;;0.87;0.40;;;14.70;71.40;14.90;96772.00;;;;5086536;28;20230;-82
2022/09/20 00:46:23;;;;;;;3.50;0.50;;;14.70;71.50;14.90;96777.00;;;;5087075;28;20214;-82
2022/09/20 00:48:54;;;;;;;0.90;0.50;;;14.60;71.60;14.90;96768.00;;;;5082988;28;20191;-82
2022/09/20 00:51:30;;;;;;;1.00;0.40;;;14.70;71.50;14.90;96771.00;;;;5089685;28;20591;-82
2022/09/20 00:54:01;;;;;;;0.93;0.50;;;14.70;71.40;14.90;96766.00;;;;5082528;28;20264;-81
2022/09/20 00:56:34;;;;;;;0.47;0.40;;;14.70;71.30;14.90;96769.00;;;;5089251;28;20292;-82
2022/09/20 00:59:14;;;;;;;1.43;0.30;;;14.70;71.20;14.90;96762.00;;;;5084301;28;20668;-82
2022/09/20 01:01:43;;;;;;;0.77;0.77;;;14.70;71.20;14.90;96772.00;;;;5090716;28;20747;-82
2022/09/20 01:04:13;;;;;;;0.43;0.43;;;14.70;71.10;14.90;96763.00;;;;5089209;28;20237;-81
2022/09/20 01:06:44;;;;;;;0.80;0.40;;;14.70;71.20;14.90;96764.00;;;;5089772;28;20566;-82
2022/09/20 01:09:12;;;;;;;0.87;0.60;;;14.70;71.20;14.90;96761.00;;;;5092160;28;20220;-82
2022/09/20 01:11:41;;;;;;;1.70;0.50;;;14.70;71.30;14.90;96762.00;;;;5081277;28;20782;-82
2022/09/20 01:14:09;;;;;;;1.53;0.67;;;14.70;71.30;14.90;96764.00;;;;5083899;28;20231;-82
2022/09/20 01:16:37;;;;;;;1.13;0.50;;;14.70;71.30;14.90;96763.00;;;;5089218;28;20211;-82
2022/09/20 01:19:22;;;;;;;0.40;0.40;;;14.70;71.30;14.90;96759.00;;;;5084458;28;20282;-82
2022/09/20 01:21:53;;;;;;;3.90;0.50;;;14.70;71.30;14.90;96759.00;;;;5092224;28;20297;-82
2022/09/20 01:24:27;;;;;;;0.47;0.40;;;14.70;71.30;14.90;96751.00;;;;5088875;28;20227;-82
2022/09/20 01:27:21;;;;;;;1.40;0.50;;;14.70;71.50;14.90;96757.00;;;;5081107;28;20266;-82
2022/09/20 01:30:05;;;;;;;0.87;0.40;;;14.70;71.60;14.90;96754.00;;;;5100806;22;20257;-86
2022/09/20 01:32:49;;;;;;;0.53;0.53;;;14.70;71.60;14.90;96755.00;;;;5067900;28;20192;-86
2022/09/20 01:35:20;;;;;;;0.30;0.30;;;14.70;71.50;14.90;96757.00;;;;5065232;28;20216;-86
2022/09/20 01:38:04;;;;;;;0.83;0.50;;;14.70;71.30;14.90;96758.00;;;;5050605;28;20196;-86
2022/09/20 01:40:43;;;;;;;0.80;0.30;;;14.70;71.40;14.90;96756.00;;;;5050277;28;20215;-86
2022/09/20 01:43:20;;;;;;;1.03;0.43;;;14.70;71.40;14.90;96754.00;;;;5081615;22;20230;-84
2022/09/20 01:45:50;;;;;;;0.47;0.40;;;14.70;71.30;14.90;96748.00;;;;5091945;28;20188;-84
2022/09/20 01:48:33;;;;;;;0.90;0.50;;;14.70;71.40;14.80;96751.00;;;;5092595;28;20401;-84
2022/09/20 01:52:19;;;;;;;0.50;0.50;;;14.70;71.40;14.80;96752.00;;;;5094824;28;20667;-84
2022/09/20 01:55:55;;;;;;;1.73;0.63;;;14.70;71.60;14.80;96751.00;;;;5076661;28;20226;-84
2022/09/20 01:59:12;;;;;;;2.37;0.53;;;14.70;71.30;14.90;96757.00;;;;5057568;28;20283;-84
2022/09/20 02:02:15;;;;;;;0.43;0.40;;;14.70;71.60;14.80;96762.00;;;;5079772;28;20190;-83
2022/09/20 02:05:12;;;;;;;0.53;0.50;;;14.70;71.70;14.80;96761.00;;;;5090608;28;20210;-84
2022/09/20 02:08:07;;;;;;;0.77;0.53;;;14.70;71.70;14.80;96755.00;;;;5089568;28;20702;-84
2022/09/20 02:11:07;;;;;;;0.70;0.47;;;14.70;71.70;14.80;96753.00;;;;5096324;28;20275;-83
2022/09/20 02:14:03;;;;;;;1.17;0.50;;;14.70;71.70;14.80;96757.00;;;;5080588;28;20759;-84
2022/09/20 02:16:53;;;;;;;0.50;0.50;;;14.70;71.80;14.80;96751.00;;;;5075490;28;20268;-84
2022/09/20 02:19:57;;;;;;;0.50;0.50;;;14.70;71.90;14.80;96750.00;;;;5088960;28;20700;-84
2022/09/20 02:22:43;;;;;;;1.53;0.60;;;14.70;72.00;14.80;96750.00;;;;5092880;28;20233;-84
2022/09/20 02:25:29;;;;;;;1.33;0.60;;;14.70;72.00;14.80;96752.00;;;;5076534;28;20192;-84
2022/09/20 02:28:21;;;;;;;1.07;0.33;;;14.70;72.00;14.80;96748.00;;;;5084850;28;20310;-84
2022/09/20 02:30:58;;;;;;;0.57;0.43;;;14.70;72.00;14.80;96751.00;;;;5093201;28;20195;-84
2022/09/20 02:34:20;;;;;;;0.40;0.40;;;14.70;71.90;14.80;96752.00;;;;5082211;28;20781;-84
2022/09/20 02:37:05;;;;;;;0.83;0.60;;;14.70;72.10;14.90;96751.00;;;;5079137;28;20199;-84
2022/09/20 02:39:38;;;;;;;1.80;0.60;;;14.70;72.10;14.80;96752.00;;;;5082229;28;20529;-83
2022/09/20 02:42:13;;;;;;;0.40;0.40;;;14.70;72.00;14.90;96750.00;;;;5090973;28;20291;-84
2022/09/20 02:44:58;;;;;;;0.33;0.33;;;14.70;72.10;14.90;96758.00;;;;5086447;28;20272;-84
2022/09/20 02:47:33;;;;;;;0.57;0.50;;;14.70;72.10;14.90;96759.00;;;;5076165;28;20673;-84
2022/09/20 02:50:28;;;;;;;1.07;0.50;;;14.70;72.80;14.90;96768.00;;;;5086735;28;21028;-84
2022/09/20 02:53:17;;;;;;;0.60;0.40;;;14.70;72.10;14.90;96766.00;;;;5084247;28;20195;-84
2022/09/20 02:55:59;;;;;;;0.40;0.30;;;14.70;72.10;14.90;96766.00;;;;5080614;28;20198;-84
2022/09/20 02:58:40;;;;;;;0.70;0.37;;;14.70;72.10;14.90;96761.00;;;;5083483;28;20210;-84
2022/09/20 03:01:38;;;;;;;0.40;0.30;;;14.70;72.10;15.00;96769.00;;;;5078845;28;20196;-84
2022/09/20 03:04:23;;;;;;;0.57;0.30;;;14.70;72.10;14.90;96764.00;;;;5079199;28;20598;-84
2022/09/20 03:06:58;;;;;;;0.60;0.50;;;14.80;72.10;15.00;96767.00;;;;5091823;28;20211;-84
2022/09/20 03:09:38;;;;;;;3.10;0.90;;;14.70;72.10;14.90;96773.00;;;;5074464;28;20303;-84
2022/09/20 03:12:24;;;;;;;0.40;0.37;;;14.70;72.10;15.00;96768.00;;;;5076952;28;20206;-84
2022/09/20 03:15:10;;;;;;;0.40;0.40;;;14.80;72.20;15.00;96768.00;;;;5073755;28;20246;-84
2022/09/20 03:17:48;;;;;;;0.50;0.50;;;14.80;72.10;15.00;96766.00;;;;5077362;28;20192;-84
2022/09/20 03:20:31;;;;;;;0.50;0.40;;;14.80;72.00;15.00;96763.00;;;;5089081;28;20226;-84
2022/09/20 03:23:10;;;;;;;0.30;0.30;;;14.80;72.00;15.00;96774.00;;;;5074253;28;20203;-84
2022/09/20 03:25:54;;;;;;;0.70;0.40;;;14.70;72.10;15.00;96765.00;;;;5074974;28;20179;-84
2022/09/20 03:28:48;;;;;;;0.57;0.40;;;14.80;72.00;15.00;96760.00;;;;5074197;28;20295;-84
2022/09/20 03:31:32;;;;;;;1.27;0.40;;;14.80;72.60;15.00;96766.00;;;;5074320;28;20263;-84
2022/09/20 03:34:13;;;;;;;1.43;1.00;;;14.70;71.80;15.00;96770.00;;;;5080853;28;20214;-84
2022/09/20 03:37:15;;;;;;;0.87;0.43;;;14.80;71.90;15.00;96768.00;;;;5083986;28;20192;-84
2022/09/20 03:40:25;;;;;;;1.90;0.63;;;14.80;71.90;15.00;96774.00;;;;5086509;28;20188;-84
2022/09/20 03:43:00;;;;;;;0.60;0.40;;;14.80;72.10;15.00;96776.00;;;;5104025;28;20238;-85
2022/09/20 03:45:50;;;;;;;0.40;0.30;;;14.80;71.90;15.00;96773.00;;;;5106006;28;20206;-85
2022/09/20 03:48:46;;;;;;;0.60;0.40;;;14.80;71.80;15.00;96774.00;;;;5081174;28;20310;-84
2022/09/20 03:51:24;;;;;;;0.87;0.60;;;14.80;71.70;15.00;96772.00;;;;5086269;28;20252;-84
2022/09/20 03:54:43;;;;;;;0.47;0.47;;;14.80;71.80;14.90;96773.00;;;;5084827;28;20219;-84
2022/09/20 03:57:42;;;;;;;0.70;0.70;;;14.80;71.80;14.90;96776.00;;;;5091440;28;20668;-84
2022/09/20 04:00:30;;;;;;;0.53;0.43;;;14.80;71.90;14.90;96767.00;;;;5074245;28;20716;-82
2022/09/20 04:03:13;;;;;;;0.73;0.70;;;14.80;72.00;14.90;96777.00;;;;5091987;28;20199;-84
2022/09/20 04:05:59;;;;;;;0.60;0.40;;;14.80;72.00;14.90;96774.00;;;;5084968;28;20234;-85
2022/09/20 04:08:56;;;;;;;0.23;0.23;;;14.70;71.90;14.90;96780.00;;;;5088576;28;20211;-84
2022/09/20 04:11:34;;;;;;;0.70;0.60;;;14.70;72.00;14.90;96773.00;;;;5074514;28;20196;-84
2022/09/20 04:14:15;;;;;;;1.40;0.50;;;14.80;72.10;14.90;96765.00;;;;5084973;28;20271;-84
2022/09/20 04:16:53;;;;;;;1.13;0.50;;;14.80;72.00;14.90;96773.00;;;;5094401;28;20270;-84
2022/09/20 04:19:31;;;;;;;1.03;0.70;;;14.80;72.00;14.90;96763.00;;;;5094963;28;20280;-85
2022/09/20 04:22:00;;;;;;;1.00;0.70;;;14.80;72.10;14.90;96771.00;;;;5091919;28;20203;-84
2022/09/20 04:24:41;;;;;;;1.90;0.50;;;14.70;72.00;14.90;96764.00;;;;5093809;28;20247;-85
2022/09/20 04:27:17;;;;;;;0.80;0.43;;;14.80;72.10;14.90;96771.00;;;;5086707;28;20204;-85
2022/09/20 04:29:54;;;;;;;0.87;0.60;;;14.70;72.80;14.90;96772.00;;;;5089499;28;20258;-85
2022/09/20 04:32:32;;;;;;;0.93;0.50;;;14.70;72.00;14.90;96773.00;;;;5090081;28;21078;-85
2022/09/20 04:38:05;;;;;;;1.60;0.70;;;14.70;72.10;14.90;96771.00;;;;5090254;28;20194;-84
2022/09/20 04:41:05;;;;;;;0.60;0.60;;;14.80;72.10;14.90;96776.00;;;;5095703;28;20196;-85
2022/09/20 04:44:31;;;;;;;0.63;0.63;;;14.80;73.00;15.00;96782.00;;;;5093858;28;20761;-85
2022/09/20 04:47:31;;;;;;;0.63;0.50;;;14.80;72.40;15.00;96783.00;;;;5072576;28;20203;-85
2022/09/20 04:50:42;;;;;;;0.50;0.50;;;14.80;72.40;15.00;96785.00;;;;5076412;28;20216;-86
2022/09/20 04:53:49;;;;;;;1.10;0.70;;;14.80;72.20;15.00;96783.00;;;;5076537;28;20258;-85
2022/09/20 04:56:27;;;;;;;0.70;0.63;;;14.80;72.20;15.00;96782.00;;;;5089092;28;20259;-85
2022/09/20 04:59:06;;;;;;;1.47;0.50;;;14.80;72.10;15.00;96780.00;;;;5087988;28;20197;-85
2022/09/20 05:02:26;;;;;;;0.50;0.50;;;14.80;72.00;15.00;96785.00;;;;5085622;28;20230;-86
2022/09/20 05:05:44;;;;;;;1.10;0.70;;;14.80;72.10;15.00;96790.00;;;;5078613;28;20235;-88
2022/09/20 05:09:03;;;;;;;1.67;1.20;;;14.80;72.30;15.00;96797.00;;;;5080426;28;20307;-87
2022/09/20 05:12:23;;;;;;;1.13;0.93;;;14.80;72.40;15.10;96797.00;;;;5080128;28;20358;-87
2022/09/20 05:15:11;;;;;;;1.30;0.80;;;14.80;72.50;15.10;96793.00;;;;5092056;28;20761;-87
2022/09/20 05:18:19;;;;;;;3.07;1.00;;;14.80;72.30;15.10;96793.00;;;;5089322;28;20732;-86
2022/09/20 05:21:09;;;;;;;1.27;0.70;;;14.90;72.40;15.20;96795.00;;;;5109028;28;20260;-88
2022/09/20 05:24:04;;;;;;;1.93;1.00;;;14.80;72.30;15.20;96794.00;;;;5089411;28;20235;-87
2022/09/20 05:26:51;;;;;;;0.90;0.73;;;14.80;72.40;15.20;96808.00;;;;5101381;28;20562;-87
2022/09/20 05:29:29;;;;;;;1.33;1.13;;;14.80;72.40;15.20;96805.00;;;;5100945;28;20215;-87
2022/09/20 05:32:09;;;;;;;1.53;0.90;;;14.80;72.50;15.20;96808.00;;;;5101627;28;20199;-87
2022/09/20 05:34:50;;;;;;;1.00;0.90;;;14.80;72.60;15.20;96810.00;;;;5093671;28;20227;-87
2022/09/20 05:37:32;;;;;;;2.03;1.50;;;14.90;72.60;15.20;96808.00;;;;5096373;28;20561;-87
2022/09/20 05:40:13;;;;;;;3.33;1.10;;;14.90;72.70;15.20;96809.00;;;;5088267;28;20281;-87
2022/09/20 05:42:51;;;;;;;0.70;0.70;;;14.90;72.80;15.20;96812.00;;;;5089602;28;20275;-87
2022/09/20 05:45:46;;;;;;;0.90;0.90;;;14.90;72.80;15.30;96808.00;;;;5091089;28;20199;-87
2022/09/20 05:48:20;;;;;;;0.90;0.83;;;14.90;72.90;15.30;96823.00;;;;5081188;28;20203;-87
2022/09/20 05:50:59;;;;;;;1.53;0.90;;;14.90;72.80;15.20;96805.00;;;;5082616;28;20199;-86
2022/09/20 05:53:58;;;;;;;0.93;0.93;;;14.90;72.90;15.20;96817.00;;;;5086918;28;20230;-87
2022/09/20 05:56:41;;;;;;;0.97;0.80;;;14.90;73.00;15.30;96818.00;;;;5080960;28;20206;-87
2022/09/20 05:59:36;;;;;;;1.20;1.00;;;15.00;73.00;15.30;96827.00;;;;5089353;28;20245;-87
2022/09/20 06:02:28;;;;;;;1.70;1.30;;;14.90;72.90;15.30;96828.00;;;;5090864;28;20263;-87
2022/09/20 06:05:07;;;;;;;1.20;1.10;;;15.00;73.00;15.30;96827.00;;;;5090392;28;20295;-87
2022/09/20 06:08:24;;;;;;;1.23;0.87;;;15.00;72.90;15.30;96828.00;;;;5086692;28;20195;-87
2022/09/20 06:11:06;;;;;;;1.53;1.20;;;15.00;73.00;15.30;96833.00;;;;5086738;28;20200;-87
2022/09/20 06:13:59;;;;;;;1.23;1.00;;;15.00;72.90;15.30;96839.00;;;;5094634;28;20231;-87
2022/09/20 06:16:40;;;;;;;0.97;0.90;;;15.00;73.10;15.40;96836.00;;;;5099068;28;20213;-87
2022/09/20 06:19:20;;;;;;;1.10;0.80;;;15.00;73.10;15.40;96829.00;;;;5092470;28;20204;-87
2022/09/20 06:21:53;;;;;;;0.70;0.70;;;15.00;73.00;15.40;96835.00;;;;5101979;28;20751;-87
2022/09/20 06:24:35;;;;;;;1.53;0.90;;;15.10;73.00;15.40;96829.00;;;;5097277;28;20692;-86
2022/09/20 06:27:10;;;;;;;1.30;1.20;;;15.10;73.00;15.40;96828.00;;;;5080995;28;20234;-88
2022/09/20 06:29:47;;;;;;;1.07;1.00;;;15.10;73.00;15.50;96834.00;;;;5098693;28;20229;-87
2022/09/20 06:32:17;;;;;;;1.27;1.10;;;15.10;73.10;15.50;96837.00;;;;5100173;28;20198;-86
2022/09/20 06:34:45;;;;;;;1.60;1.30;;;15.10;73.30;15.50;96840.00;;;;5084816;28;20234;-88
2022/09/20 06:43:25;;;;;;;1.63;1.20;;;15.20;73.50;15.50;96849.00;;;;5103757;28;20248;-87
2022/09/20 06:45:52;;;;;;;2.30;1.60;;;15.20;73.40;15.50;96850.00;;;;5093316;28;20200;-87
2022/09/20 06:48:19;;;;;;;1.67;1.23;;;15.20;73.50;15.50;96852.00;;;;5102350;28;20195;-87
2022/09/20 06:50:46;;;;;;;2.30;1.13;;;15.20;73.50;15.60;96857.00;;;;5102179;28;20222;-87
2022/09/20 06:53:19;;;;;;;0.93;0.80;;;15.20;73.40;15.60;96861.00;;;;5098427;28;20655;-87
2022/09/20 06:55:47;;;;;;;0.93;0.80;;;15.20;73.40;15.60;96856.00;;;;5091171;28;20195;-86
2022/09/20 06:58:14;;;;;;;0.90;0.90;;;15.30;73.50;15.70;96851.00;;;;5102089;28;20259;-87
2022/09/20 07:00:43;;;;;;;1.27;1.00;;;15.30;73.50;15.70;96857.00;;;;5098405;28;20212;-88
2022/09/20 07:03:11;;;;;;;3.20;1.10;;;15.30;73.30;15.70;96857.00;;;;5104277;28;20218;-87
2022/09/20 07:05:38;;;;;;;1.30;0.93;;;15.30;73.20;15.80;96860.00;;;;5103912;28;20203;-88
2022/09/20 07:08:06;;;;;;;2.17;1.10;;;15.40;73.40;15.80;96862.00;;;;5105731;28;20230;-86
2022/09/20 07:10:34;;;;;;;2.97;1.40;;;15.40;73.30;15.80;96867.00;;;;5101020;28;20255;-87
2022/09/20 07:13:02;;;;;;;1.77;0.93;;;15.40;73.10;15.90;96857.00;;;;5099649;28;20195;-87
2022/09/20 07:15:32;;;;;;;1.80;1.13;;;15.50;73.20;15.90;96860.00;;;;5098852;28;20231;-87
2022/09/20 07:18:01;;;;;;;1.77;1.20;;;15.50;73.40;16.00;96863.00;;;;5103533;28;20222;-87
2022/09/20 07:20:28;;;;;;;2.57;1.30;;;15.50;73.60;16.00;96860.00;;;;5095560;28;20258;-87
2022/09/20 07:22:55;;;;;;;2.07;1.33;;;15.60;73.60;16.00;96865.00;;;;5105326;28;20274;-87
2022/09/20 07:25:23;;;;;;;1.20;1.00;;;15.60;73.30;16.10;96861.00;;;;5105093;28;20231;-87
2022/09/20 07:27:51;;;;;;;1.50;1.10;;;15.60;73.20;16.10;96865.00;;;;5105256;28;20255;-87
2022/09/20 07:30:20;;;;;;;2.33;1.50;;;15.70;73.10;16.20;96872.00;;;;5103893;28;20269;-87
2022/09/20 07:32:47;;;;;;;1.60;1.27;;;15.70;73.20;16.20;96870.00;;;;5106145;28;20195;-87
2022/09/20 07:35:16;;;;;;;2.00;1.03;;;15.70;73.00;16.20;96865.00;;;;5103844;28;20194;-87
2022/09/20 07:37:43;;;;;;;1.20;1.10;;;15.80;72.90;16.30;96870.00;;;;5106430;28;20207;-87
2022/09/20 07:40:13;;;;;;;1.60;1.10;;;15.80;72.70;16.30;96868.00;;;;5107353;28;20226;-87
2022/09/20 07:42:44;;;;;;;1.97;1.10;;;15.80;72.40;16.30;96870.00;;;;5105035;28;20203;-87
2022/09/20 07:45:12;;;;;;;2.43;1.20;;;15.80;72.40;16.30;96871.00;;;;5096307;28;20667;-87
2022/09/20 07:47:40;;;;;;;2.43;1.20;;;15.90;72.50;16.30;96864.00;;;;5094436;28;20293;-88
2022/09/20 07:50:10;;;;;;;1.87;1.20;;;15.90;72.50;16.40;96870.00;;;;5094106;28;20310;-88
2022/09/20 07:52:38;;;;;;;1.17;1.07;;;16.00;72.50;16.50;96876.00;;;;5094110;28;20203;-88
2022/09/20 07:55:06;;;;;;;2.93;1.07;;;16.00;72.40;16.50;96876.00;;;;5094053;28;20218;-88
2022/09/20 07:57:36;;;;;;;2.77;1.07;;;16.00;72.30;16.60;96878.00;;;;5093169;28;20227;-88
2022/09/20 08:00:07;;;;;;;1.67;1.07;;;16.10;72.30;16.70;96885.00;;;;5094037;28;20285;-88
2022/09/20 08:02:34;;;;;;;1.47;1.13;;;16.10;72.60;16.70;96892.00;;;;5094398;28;20195;-88
2022/09/20 08:05:01;;;;;;;2.63;1.33;;;16.20;72.30;16.80;96893.00;;;;5093476;28;20302;-88
2022/09/20 08:07:29;;;;;;;1.50;0.90;;;16.20;72.00;16.80;96887.00;;;;5094112;28;20214;-87
2022/09/20 08:09:59;;;;;;;2.30;1.10;;;16.30;71.60;16.80;96893.00;;;;5094418;28;20199;-88
2022/09/20 08:12:26;;;;;;;0.90;0.90;;;16.30;71.40;16.80;96892.00;;;;5093949;28;20205;-88
2022/09/20 08:14:53;;;;;;;1.30;1.20;;;16.30;71.40;16.80;96892.00;;;;5085062;28;20227;-88
2022/09/20 08:17:20;;;;;;;8.70;1.50;;;16.30;70.80;16.80;96897.00;;;;5073649;28;20650;-88
2022/09/20 08:19:48;;;;;;;4.40;1.20;;;16.30;70.70;16.80;96902.00;;;;5073515;28;20235;-88
2022/09/20 08:22:15;;;;;;;1.93;0.80;;;16.40;70.80;16.90;96903.00;;;;5073788;28;20211;-88
2022/09/20 08:24:43;;;;;;;2.50;1.00;;;16.40;71.00;17.00;96898.00;;;;5073057;28;20239;-88
2022/09/20 08:27:12;;;;;;;2.23;1.20;;;16.50;71.10;17.20;96900.00;;;;5073721;28;20192;-88
2022/09/20 08:29:39;;;;;;;2.53;1.13;;;16.60;71.00;17.30;96898.00;;;;5075523;28;20310;-88
2022/09/20 08:32:06;;;;;;;1.20;0.90;;;16.60;70.70;17.40;96905.00;;;;5073428;28;20598;-88
2022/09/20 08:34:33;;;;;;;2.47;1.10;;;16.80;70.80;17.50;96901.00;;;;5073120;28;20222;-88
2022/09/20 08:37:00;;;;;;;1.60;1.10;;;16.80;70.50;17.50;96897.00;;;;5073088;28;20230;-88
2022/09/20 08:39:27;;;;;;;1.13;0.97;;;16.90;70.70;17.60;96893.00;;;;5073093;28;20210;-88
2022/09/20 08:42:01;;;;;;;2.43;1.03;;;17.00;69.90;17.70;96905.00;;;;5073078;28;20607;-88
2022/09/20 08:44:35;;;;;;;3.13;1.40;;;17.10;69.70;17.80;96899.00;;;;5084120;28;20315;-88
2022/09/20 08:47:14;;;;;;;1.50;0.70;;;17.20;69.20;17.90;96898.00;;;;5073236;28;20661;-88
2022/09/20 08:49:44;;;;;;;2.07;0.90;;;17.20;68.40;17.90;96902.00;;;;5072919;28;20238;-88
2022/09/20 08:52:18;;;;;;;1.20;0.77;;;17.30;68.70;18.00;96902.00;;;;5087442;28;20282;-88
2022/09/20 08:54:45;;;;;;;2.20;0.93;;;17.40;68.50;18.00;96908.00;;;;5104658;28;20298;-88
2022/09/20 08:57:17;;;;;;;1.07;0.90;;;17.40;68.10;18.00;96896.00;;;;5109291;28;20230;-88
2022/09/20 08:59:46;;;;;;;1.30;1.00;;;17.40;67.50;18.00;96909.00;;;;5092848;28;20190;-88
2022/09/20 09:02:17;;;;;;;1.40;0.80;;;17.50;67.30;18.00;96907.00;;;;5093014;28;20221;-88
2022/09/20 09:04:47;;;;;;;1.60;0.87;;;17.50;67.20;18.00;96909.00;;;;5092837;28;20302;-88
2022/09/20 09:07:18;;;;;;;1.73;0.87;;;17.50;67.60;17.90;96904.00;;;;5093180;28;20602;-88
2022/09/20 09:09:48;;;;;;;1.93;1.07;;;17.50;67.60;17.90;96904.00;;;;5092943;28;20749;-88
2022/09/20 09:12:23;;;;;;;1.40;0.97;;;17.50;67.20;17.90;96911.00;;;;5084982;28;20715;-88
2022/09/20 09:14:54;;;;;;;1.57;1.10;;;17.50;67.00;17.90;96909.00;;;;5080193;28;20250;-88
2022/09/20 09:17:24;;;;;;;1.60;1.13;;;17.50;67.00;17.80;96905.00;;;;5093091;28;20199;-88
2022/09/20 09:19:53;;;;;;;1.73;1.10;;;17.40;67.00;17.80;96915.00;;;;5092567;28;20223;-88
2022/09/20 09:22:31;;;;;;;1.87;0.90;;;17.40;67.10;17.70;96902.00;;;;5083454;28;20234;-88
2022/09/20 09:25:24;;;;;;;3.10;0.90;;;17.40;67.20;17.70;96906.00;;;;5072392;28;20232;-88
2022/09/20 09:27:55;;;;;;;1.10;1.00;;;17.40;66.30;17.70;96907.00;;;;5072607;28;20547;-88
2022/09/20 09:30:29;;;;;;;4.37;1.23;;;17.40;66.80;17.80;96897.00;;;;5088815;28;20716;-88
2022/09/20 09:33:22;;;;;;;2.13;1.20;;;17.30;67.10;17.80;96895.00;;;;5092930;28;20266;-88
2022/09/20 09:35:59;;;;;;;1.30;0.97;;;17.40;66.90;17.90;96891.00;;;;5088263;28;20668;-88
2022/09/20 09:38:30;;;;;;;1.37;0.80;;;17.40;67.50;18.10;96888.00;;;;5100659;28;20270;-88
2022/09/20 09:41:01;;;;;;;2.03;0.83;;;17.50;68.30;18.30;96886.00;;;;5094717;28;20230;-89
2022/09/20 09:43:32;;;;;;;1.70;1.03;;;17.60;67.90;18.50;96888.00;;;;5094413;28;20844;-89
2022/09/20 09:49:10;;;;;;;1.13;0.77;;;17.70;67.90;18.90;96885.00;;;;5130413;27;20533;-85
2022/09/20 09:51:38;;;;;;;2.13;1.10;;;18.10;65.50;19.00;96881.00;;;;5110772;28;20583;-87
2022/09/20 09:54:07;;;;;;;3.20;1.10;;;18.20;65.00;19.10;96884.00;;;;5110037;27;20274;-87
2022/09/20 09:57:04;;;;;;;2.73;1.17;;;18.30;64.20;19.10;96883.00;;;;5109879;28;20201;-88
2022/09/20 09:59:53;;;;;;;1.47;0.80;;;18.40;62.20;19.00;96885.00;;;;5109764;28;20195;-87
2022/09/20 10:02:46;;;;;;;0.90;0.60;;;18.40;62.20;18.90;96877.00;;;;5099754;28;20600;-87
2022/09/20 10:05:26;;;;;;;1.83;0.63;;;18.50;61.60;19.00;96877.00;;;;5109943;28;20226;-87
2022/09/20 10:08:09;;;;;;;1.60;0.67;;;18.50;61.60;19.00;96865.00;;;;5106200;28;20214;-87
2022/09/20 10:11:01;;;;;;;1.30;0.70;;;18.60;62.60;19.20;96875.00;;;;5110352;28;20207;-87
2022/09/20 10:13:38;;;;;;;2.30;0.60;;;18.60;61.50;19.30;96870.00;;;;5110756;28;20345;-87
2022/09/20 10:16:22;;;;;;;1.20;0.77;;;18.70;60.90;19.40;96863.00;;;;5110297;27;20226;-87
2022/09/20 10:19:05;;;;;;;1.27;0.60;;;18.90;59.40;19.30;96873.00;;;;5110080;28;20679;-87
2022/09/20 10:21:50;;;;;;;2.57;0.70;;;18.90;59.50;19.30;96864.00;;;;5112458;28;20298;-87
2022/09/20 10:24:33;;;;;;;0.67;0.47;;;19.00;59.60;19.50;96868.00;;;;5109825;28;20660;-87
2022/09/20 10:27:27;;;;;;;1.93;0.60;;;19.10;60.20;19.70;96864.00;;;;5110059;28;20272;-87
2022/09/20 10:30:08;;;;;;;2.30;0.70;;;19.30;59.40;19.90;96862.00;;;;5111123;28;20245;-86
2022/09/20 10:32:59;;;;;;;1.70;0.83;;;19.40;60.60;20.10;96862.00;;;;5110288;28;20277;-86
2022/09/20 10:35:51;;;;;;;1.33;0.43;;;19.60;60.00;20.40;96861.00;;;;5109781;28;20206;-85
2022/09/20 10:38:27;;;;;;;1.93;0.60;;;19.80;60.30;20.60;96869.00;;;;5108767;28;20199;-85
2022/09/20 10:44:41;;;;;;;0.70;0.40;;;20.20;57.80;20.80;96869.00;;;;5108418;28;20193;-85
2022/09/20 10:47:18;;;;;;;1.47;0.60;;;20.30;57.40;20.70;96870.00;;;;5108799;27;20223;-85
2022/09/20 10:49:57;;;;;;;2.93;0.70;;;20.40;57.20;20.70;96867.00;;;;5109418;28;20628;-85
2022/09/20 10:52:47;;;;;;;1.33;0.67;;;20.40;56.70;20.60;96865.00;;;;5108649;28;20651;-85
2022/09/20 10:55:38;;;;;;;1.57;0.70;;;20.40;56.00;20.60;96873.00;;;;5103072;28;20264;-85
2022/09/20 10:59:08;;;;;;;1.47;0.50;;;20.30;56.40;20.60;96881.00;;;;5107737;28;20603;-85
2022/09/20 11:01:50;;;;;;;3.23;0.67;;;20.30;56.70;20.60;96870.00;;;;5094536;28;20269;-85
2022/09/20 11:04:57;;;;;;;1.63;0.60;;;20.30;57.50;20.60;96877.00;;;;5094670;28;20196;-86
2022/09/20 11:07:42;;;;;;;1.00;0.50;;;20.30;56.40;20.60;96877.00;;;;5094632;28;20223;-85
2022/09/20 11:10:23;;;;;;;1.93;0.80;;;20.30;56.70;20.50;96871.00;;;;5084369;28;20746;-85
2022/09/20 11:12:58;;;;;;;1.13;0.50;;;20.20;55.50;20.40;96873.00;;;;5085869;28;20444;-84
2022/09/20 11:15:32;;;;;;;0.97;0.37;;;20.10;55.50;20.20;96882.00;;;;5081343;28;20199;-84
2022/09/20 11:18:10;;;;;;;2.13;0.50;;;20.00;55.40;20.20;96883.00;;;;5074138;28;20230;-84
2022/09/20 11:20:45;;;;;;;0.83;0.63;;;19.90;55.30;20.10;96876.00;;;;5073950;28;20227;-84
2022/09/20 11:23:20;;;;;;;1.53;0.53;;;19.80;55.40;20.10;96885.00;;;;5089273;28;20222;-84
2022/09/20 11:25:55;;;;;;;1.60;0.60;;;19.80;55.20;20.00;96884.00;;;;5097876;28;20202;-84
2022/09/20 11:28:32;;;;;;;1.53;0.57;;;19.70;55.20;20.00;96880.00;;;;5090439;28;20301;-84
2022/09/20 11:31:10;;;;;;;1.90;0.60;;;19.70;55.20;20.00;96883.00;;;;5094653;28;20229;-82
2022/09/20 11:33:44;;;;;;;1.27;0.67;;;19.60;55.20;19.90;96883.00;;;;5095605;28;20274;-85
2022/09/20 11:36:19;;;;;;;0.50;0.50;;;19.60;55.00;19.90;96894.00;;;;5093893;28;20201;-86
2022/09/20 11:38:54;;;;;;;1.33;0.40;;;19.50;54.60;19.90;96890.00;;;;5094455;28;20260;-85
2022/09/20 11:41:29;;;;;;;2.00;0.63;;;19.50;54.90;19.90;96876.00;;;;5093906;28;20256;-84
2022/09/20 11:44:06;;;;;;;1.73;0.77;;;19.50;54.60;19.90;96882.00;;;;5095292;28;20548;-83
2022/09/20 11:46:47;;;;;;;1.50;0.60;;;19.50;54.60;19.90;96889.00;;;;5094879;28;20195;-84
2022/09/20 11:49:22;;;;;;;1.63;0.53;;;19.50;54.60;19.90;96875.00;;;;5094935;28;20221;-85
2022/09/20 11:52:33;;;;;;;0.57;0.50;;;19.50;54.80;19.90;96874.00;;;;5086114;28;20670;-82
2022/09/20 11:55:29;;;;;;;1.70;0.70;;;19.50;54.60;19.80;96874.00;;;;5074888;28;20204;-82
2022/09/20 11:58:19;;;;;;;1.47;0.53;;;19.50;54.20;19.70;96876.00;;;;5074126;28;20269;-82
2022/09/20 12:00:53;;;;;;;0.50;0.40;;;19.40;54.20;19.70;96871.00;;;;5073068;28;20216;-85
2022/09/20 12:03:32;;;;;;;1.10;1.00;;;19.40;54.70;19.60;96868.00;;;;5087570;28;20203;-85
2022/09/20 12:06:02;;;;;;;2.10;0.70;;;19.30;54.00;19.50;96864.00;;;;5093061;28;20420;-85
2022/09/20 12:08:35;;;;;;;2.40;0.70;;;19.20;53.90;19.40;96869.00;;;;5092805;28;20703;-85